• Join FlightAware (Why Join?)
  • Login
  • US Flag 
11:14AM EST


 

Airport Tracker/Info


-or-


 

Live Flight TrackerFlight Track Log ✈ N3272V ✈ 20-Apr-2013 ✈ KDVT - KPRC

Flight Track Log - Related Links

Times and Time Zones

All times are in EDT time to prevent confusion due to time zone crossing. See the N3272V flight status page for this flight to view local times or setup timezone preferences in your user account.

Time Position Orientation Groundspeed Altitude Reporting Facility
EDT Latitude Longitude Course Direction KTS MPH feet Rate Location/Type
11:57AM 33.7833 -112.0000 360° North 129 148 5,600  Level Phoenix TRACON
11:58AM 33.8167 -112.0000 360° North 125 144 6,600 960 Climbing Phoenix TRACON
11:59AM 33.8500 -112.0167 337° Northwest 117 135 7,500 840 Climbing Phoenix TRACON
12:00PM 33.8781 -112.0183 357° North 113 130 8,200 540 Climbing Albuquerque Center
12:01PM 33.9122 -112.0272 348° North 126 145 8,600 180 Climbing Albuquerque Center
12:02PM 33.9542 -112.0431 343° North 155 178 8,600 -120 Level Albuquerque Center
12:03PM 33.9944 -112.0581 343° North 152 175 8,400 -120 Descending Albuquerque Center
12:04PM 34.0322 -112.0700 345° North 141 162 8,400  Level Albuquerque Center
12:05PM 34.0681 -112.0811 346° North 134 154 8,400  Level Albuquerque Center
12:06PM 34.1044 -112.0878 351° North 132 152 8,400  Level Albuquerque Center
12:07PM 34.1406 -112.0958 350° North 132 152 8,400  Level Albuquerque Center
12:08PM 34.1833 -112.1042 351° North 129 148 8,400  Level Albuquerque Center
12:09PM 34.2194 -112.1178 343° North 134 154 8,500  Climbing Albuquerque Center
12:10PM 34.2544 -112.1289 345° North 132 152 8,500 -60 Level Albuquerque Center
12:11PM 34.2881 -112.1392 346° North 126 145 8,400 -60 Descending Albuquerque Center
12:12PM 34.3239 -112.1481 348° North 130 150 8,400  Level Albuquerque Center
12:13PM 34.3569 -112.1592 344° North 125 144 8,500  Climbing Albuquerque Center
12:14PM 34.3894 -112.1731 341° North 124 143 8,400  Descending Albuquerque Center
12:15PM 34.4319 -112.1883 343° North 130 150 8,500  Climbing Albuquerque Center
12:16PM 34.4669 -112.2006 344° North 132 152 8,500  Level Albuquerque Center